createdAt,value
2024-04-21T00:00:43.975Z,51.55
2024-04-21T00:03:11.028Z,51.35
2024-04-21T00:05:37.998Z,52.23
2024-04-21T00:08:04.934Z,53.21
2024-04-21T00:10:31.890Z,52.09
2024-04-21T00:12:58.825Z,52.65
2024-04-21T00:15:25.381Z,52.36
2024-04-21T00:17:51.939Z,52.85
2024-04-21T00:20:18.539Z,53.19
2024-04-21T00:22:45.099Z,52.48
2024-04-21T00:25:11.745Z,52.12
2024-04-21T00:27:38.349Z,52.22
2024-04-21T00:30:04.926Z,52.44
2024-04-21T00:32:31.506Z,52.45
2024-04-21T00:34:58.109Z,52.33
2024-04-21T00:37:24.658Z,52.67
2024-04-21T00:39:51.237Z,51.96
2024-04-21T00:42:17.794Z,51.30
2024-04-21T00:44:44.341Z,51.51
2024-04-21T00:47:10.971Z,52.36
2024-04-21T00:49:37.543Z,52.02
2024-04-21T00:52:04.155Z,52.07
2024-04-21T00:54:30.737Z,51.27
2024-04-21T00:56:57.283Z,49.81
2024-04-21T00:59:23.816Z,50.23
2024-04-21T01:01:50.450Z,49.91
2024-04-21T01:04:17.079Z,49.82
2024-04-21T01:06:43.681Z,50.08
2024-04-21T01:09:10.260Z,49.90
2024-04-21T01:11:36.801Z,50.66
2024-04-21T01:14:03.718Z,50.25
2024-04-21T01:16:30.664Z,50.64
2024-04-21T01:18:57.661Z,49.93
2024-04-21T01:21:24.616Z,50.60
2024-04-21T01:23:51.572Z,49.36
2024-04-21T01:26:18.513Z,52.96
2024-04-21T01:28:45.471Z,54.29
2024-04-21T01:31:12.447Z,54.83
2024-04-21T01:33:39.397Z,54.62
2024-04-21T01:36:06.344Z,55.09
2024-04-21T01:38:33.278Z,54.89
2024-04-21T01:41:00.232Z,54.60
2024-04-21T01:43:27.204Z,54.72
2024-04-21T01:45:54.193Z,54.45
2024-04-21T01:48:21.154Z,54.50
2024-04-21T01:50:48.170Z,54.42
2024-04-21T01:53:15.128Z,54.00
2024-04-21T01:55:42.072Z,52.84
2024-04-21T01:58:09.051Z,53.22
2024-04-21T02:00:36.016Z,51.75
2024-04-21T02:03:02.991Z,52.71
2024-04-21T02:05:29.962Z,53.20
2024-04-21T02:07:56.922Z,51.86
2024-04-21T02:10:23.919Z,51.71
2024-04-21T02:12:50.917Z,51.60
2024-04-21T02:15:17.932Z,52.88
2024-04-21T02:17:44.915Z,52.19
2024-04-21T02:20:11.856Z,51.61
2024-04-21T02:22:38.782Z,51.18
2024-04-21T02:25:05.778Z,51.31
2024-04-21T02:27:32.760Z,50.47
2024-04-21T02:29:59.717Z,49.09
2024-04-21T02:32:26.699Z,49.08
2024-04-21T02:34:53.637Z,48.66
2024-04-21T02:37:20.639Z,48.93
2024-04-21T02:39:47.583Z,49.51
2024-04-21T02:42:14.550Z,49.90
2024-04-21T02:44:41.564Z,49.76
2024-04-21T02:47:08.570Z,49.39
2024-04-21T02:49:35.518Z,50.31
2024-04-21T02:52:02.495Z,49.35
2024-04-21T02:54:29.547Z,49.41
2024-04-21T02:56:56.501Z,49.05
2024-04-21T02:59:24.321Z,49.13
2024-04-21T03:01:52.328Z,49.26
2024-04-21T03:04:19.493Z,49.87
2024-04-21T03:06:46.534Z,49.35
2024-04-21T03:09:13.501Z,49.35
2024-04-21T03:11:40.466Z,49.75
2024-04-21T03:14:07.409Z,49.73
2024-04-21T03:16:34.347Z,49.02
2024-04-21T03:19:01.359Z,49.49
2024-04-21T03:21:28.336Z,50.01
2024-04-21T03:23:55.272Z,49.27
2024-04-21T03:26:22.262Z,49.63
2024-04-21T03:28:49.173Z,49.44
2024-04-21T03:31:16.127Z,50.15
2024-04-21T03:33:43.059Z,49.36
2024-04-21T03:36:10.011Z,49.68
2024-04-21T03:38:36.989Z,49.67
2024-04-21T03:41:03.946Z,49.97
2024-04-21T03:43:30.886Z,49.57
2024-04-21T03:45:57.877Z,49.67
2024-04-21T03:48:24.887Z,49.20
2024-04-21T03:50:51.856Z,49.12
2024-04-21T03:53:18.800Z,49.31
2024-04-21T03:55:45.739Z,50.08
2024-04-21T03:58:12.744Z,51.10
2024-04-21T04:00:39.695Z,49.74
2024-04-21T04:03:06.711Z,48.76
2024-04-21T04:05:33.676Z,48.41
2024-04-21T04:08:00.649Z,49.24
2024-04-21T04:10:27.655Z,48.73
2024-04-21T04:12:54.625Z,49.44
2024-04-21T04:15:21.605Z,49.10
2024-04-21T04:17:48.673Z,49.23
2024-04-21T04:20:15.651Z,49.07
2024-04-21T04:22:42.585Z,49.20
2024-04-21T04:25:09.546Z,48.88
2024-04-21T04:27:36.646Z,48.77
2024-04-21T04:30:03.615Z,48.76
2024-04-21T04:32:30.636Z,48.72
2024-04-21T04:34:57.629Z,48.49
2024-04-21T04:37:24.693Z,48.09
2024-04-21T04:39:51.690Z,50.52
2024-04-21T04:42:18.679Z,51.76
2024-04-21T04:44:45.672Z,50.87
2024-04-21T04:47:12.649Z,49.98
2024-04-21T04:49:39.633Z,49.08
2024-04-21T04:52:06.604Z,50.04
2024-04-21T04:54:33.557Z,49.89
2024-04-21T04:57:00.472Z,49.03
2024-04-21T04:59:27.409Z,49.04
2024-04-21T05:01:54.426Z,48.59
2024-04-21T05:04:21.546Z,49.89
2024-04-21T05:06:48.549Z,50.29
2024-04-21T05:09:15.530Z,50.89
2024-04-21T05:11:42.573Z,50.27
2024-04-21T05:14:09.519Z,48.70
2024-04-21T05:16:36.434Z,48.35
2024-04-21T05:19:03.365Z,47.83
2024-04-21T05:21:30.312Z,49.80
2024-04-21T05:23:57.248Z,49.33
2024-04-21T05:26:24.196Z,48.09
2024-04-21T05:28:51.245Z,47.54
2024-04-21T05:31:18.366Z,47.88
2024-04-21T05:33:45.381Z,48.27
2024-04-21T05:36:12.327Z,48.96
2024-04-21T05:38:39.292Z,47.21
2024-04-21T05:41:06.226Z,47.14
2024-04-21T05:43:33.148Z,46.44
2024-04-21T05:46:00.116Z,47.66
2024-04-21T05:48:27.171Z,48.11
2024-04-21T05:50:54.096Z,48.25
2024-04-21T05:53:20.996Z,48.13
2024-04-21T05:55:47.952Z,48.22
2024-04-21T05:58:14.904Z,48.08
2024-04-21T06:00:41.869Z,47.96
2024-04-21T06:03:08.941Z,47.74
2024-04-21T06:05:35.893Z,47.44
2024-04-21T06:08:02.851Z,46.97
2024-04-21T06:10:29.882Z,47.08
2024-04-21T06:12:56.911Z,46.84
2024-04-21T06:15:23.896Z,46.63
2024-04-21T06:17:51.175Z,47.46
2024-04-21T06:20:18.172Z,47.56
2024-04-21T06:22:45.172Z,46.61
2024-04-21T06:25:12.146Z,46.04
2024-04-21T06:27:39.167Z,46.10
2024-04-21T06:30:06.157Z,46.96
2024-04-21T06:32:33.147Z,50.11
2024-04-21T06:35:00.173Z,49.03
2024-04-21T06:37:27.184Z,49.75
2024-04-21T06:39:54.125Z,49.81
2024-04-21T06:42:21.099Z,50.02
2024-04-21T06:44:48.151Z,49.25
2024-04-21T06:47:15.104Z,48.09
2024-04-21T06:49:42.065Z,49.53
2024-04-21T06:52:08.998Z,49.75
2024-04-21T06:54:35.950Z,48.94
2024-04-21T06:57:02.935Z,48.09
2024-04-21T06:59:29.921Z,46.26
2024-04-21T07:01:56.534Z,47.30
2024-04-21T07:04:23.187Z,48.25
2024-04-21T07:06:49.858Z,47.38
2024-04-21T07:09:16.450Z,46.85
2024-04-21T07:11:43.020Z,46.42
2024-04-21T07:14:18.446Z,46.33
2024-04-21T07:16:47.260Z,47.29
2024-04-21T07:19:13.876Z,48.29
2024-04-21T07:21:40.514Z,48.18
2024-04-21T07:24:07.047Z,48.13
2024-04-21T07:26:33.621Z,49.51
2024-04-21T07:29:00.179Z,51.54
2024-04-21T07:31:26.807Z,50.36
2024-04-21T07:33:53.473Z,50.52
2024-04-21T07:36:20.033Z,50.63
2024-04-21T07:38:46.679Z,50.14
2024-04-21T07:41:13.262Z,49.07
2024-04-21T07:43:39.823Z,49.56
2024-04-21T07:46:06.442Z,49.70
2024-04-21T07:48:33.178Z,49.75
2024-04-21T07:50:59.799Z,51.79
2024-04-21T07:53:26.344Z,51.81
2024-04-21T07:55:53.006Z,53.59
2024-04-21T07:58:19.585Z,52.13
2024-04-21T08:00:46.641Z,50.89
2024-04-21T08:03:13.641Z,52.96
2024-04-21T08:05:40.596Z,51.54
2024-04-21T08:08:07.515Z,51.38
2024-04-21T08:10:42.581Z,52.90
2024-04-21T08:13:14.657Z,51.95
2024-04-21T08:15:41.814Z,51.00
2024-04-21T08:18:08.903Z,50.80
2024-04-21T08:20:35.850Z,51.40
2024-04-21T08:23:02.863Z,51.26
2024-04-21T08:25:30.004Z,52.22
2024-04-21T08:27:56.970Z,51.90
2024-04-21T08:30:23.980Z,49.79
2024-04-21T08:32:51.043Z,49.96
2024-04-21T08:35:18.030Z,48.87
2024-04-21T08:37:45.010Z,48.99
2024-04-21T08:40:12.104Z,48.74
2024-04-21T08:42:39.166Z,48.63
2024-04-21T08:45:06.133Z,49.34
2024-04-21T08:47:33.153Z,48.88
2024-04-21T08:50:00.245Z,49.84
2024-04-21T08:52:27.294Z,49.04
2024-04-21T08:54:54.323Z,47.56
2024-04-21T08:57:21.308Z,47.34
2024-04-21T08:59:48.278Z,47.11
2024-04-21T09:02:15.340Z,47.85
2024-04-21T09:04:42.367Z,47.84
2024-04-21T09:07:09.378Z,48.06
2024-04-21T09:09:36.484Z,48.30
2024-04-21T09:12:03.457Z,49.02
2024-04-21T09:14:30.377Z,47.69
2024-04-21T09:16:57.324Z,48.18
2024-04-21T09:19:24.321Z,47.14
2024-04-21T09:21:51.378Z,46.33
2024-04-21T09:24:18.367Z,46.81
2024-04-21T09:26:45.385Z,46.98
2024-04-21T09:29:12.432Z,46.54
2024-04-21T09:31:39.405Z,45.66
2024-04-21T09:34:06.399Z,46.43
2024-04-21T09:36:33.398Z,47.86
2024-04-21T09:39:00.372Z,47.27
2024-04-21T09:41:27.302Z,47.20
2024-04-21T09:43:54.258Z,46.21
2024-04-21T09:46:21.230Z,45.94
2024-04-21T09:48:48.184Z,45.78
2024-04-21T09:51:15.117Z,45.90
2024-04-21T09:53:42.054Z,45.27
2024-04-21T09:56:10.736Z,46.74
2024-04-21T09:58:37.955Z,45.94
2024-04-21T10:01:04.997Z,45.15
2024-04-21T10:03:32.046Z,45.92
2024-04-21T10:05:59.121Z,45.98
2024-04-21T10:08:26.084Z,46.37
2024-04-21T10:10:53.182Z,47.84
2024-04-21T10:13:20.141Z,47.08
2024-04-21T10:15:47.109Z,46.81
2024-04-21T10:18:14.144Z,50.28
2024-04-21T10:20:41.231Z,51.03
2024-04-21T10:23:08.147Z,53.50
2024-04-21T10:25:35.186Z,53.47
2024-04-21T10:28:02.274Z,54.15
2024-04-21T10:30:29.267Z,54.48
2024-04-21T10:32:56.240Z,54.92
2024-04-21T10:35:23.205Z,56.56
2024-04-21T10:37:52.996Z,56.27
2024-04-21T10:40:20.869Z,58.00
2024-04-21T10:42:47.883Z,55.79
2024-04-21T10:45:14.826Z,52.06
2024-04-21T10:47:41.863Z,52.96
2024-04-21T10:50:08.827Z,51.04
2024-04-21T10:52:35.795Z,51.24
2024-04-21T10:55:02.868Z,49.93
2024-04-21T10:57:29.842Z,47.77
2024-04-21T10:59:56.782Z,49.75
2024-04-21T11:02:23.895Z,45.31
2024-04-21T11:04:50.899Z,45.67
2024-04-21T11:07:17.925Z,45.36
2024-04-21T11:09:44.876Z,41.76
2024-04-21T11:12:11.845Z,41.62
2024-04-21T11:14:38.789Z,40.49
2024-04-21T11:17:05.729Z,42.10
2024-04-21T11:19:32.720Z,42.73
2024-04-21T11:21:59.743Z,43.90
2024-04-21T11:24:26.701Z,45.15
2024-04-21T11:26:53.649Z,46.57
2024-04-21T11:29:20.626Z,49.00
2024-04-21T11:31:47.592Z,48.44
2024-04-21T11:34:14.583Z,50.01
2024-04-21T11:36:41.535Z,48.57
2024-04-21T11:39:08.469Z,48.45
2024-04-21T11:41:35.503Z,48.56
2024-04-21T11:44:02.460Z,48.28
2024-04-21T11:46:29.535Z,49.45
2024-04-21T11:48:56.707Z,50.13
2024-04-21T11:51:23.838Z,52.17
2024-04-21T11:53:51.013Z,50.94
2024-04-21T11:56:17.976Z,52.31
2024-04-21T11:58:45.073Z,52.62
2024-04-21T12:01:12.092Z,54.52
2024-04-21T12:03:39.180Z,52.85
2024-04-21T12:06:06.149Z,50.65
2024-04-21T12:08:33.133Z,49.35
2024-04-21T12:11:00.122Z,50.63
2024-04-21T12:13:27.213Z,50.18
2024-04-21T12:15:54.310Z,48.04
2024-04-21T12:18:21.323Z,48.19
2024-04-21T12:20:48.271Z,48.40
2024-04-21T12:23:15.188Z,43.79
2024-04-21T12:25:42.221Z,42.47
2024-04-21T12:28:09.243Z,41.88
2024-04-21T12:30:36.268Z,38.45
2024-04-21T12:33:03.375Z,39.12
2024-04-21T12:35:30.440Z,40.65
2024-04-21T12:37:57.407Z,39.57
2024-04-21T12:40:24.385Z,35.56
2024-04-21T12:42:52.422Z,35.24
2024-04-21T12:45:19.504Z,36.70
2024-04-21T12:47:46.496Z,36.70
2024-04-21T12:50:13.458Z,35.19
2024-04-21T12:52:40.453Z,30.81
2024-04-21T12:55:07.375Z,32.30
2024-04-21T12:57:34.352Z,33.22
2024-04-21T13:00:01.284Z,32.49
2024-04-21T13:02:28.426Z,32.16
2024-04-21T13:04:55.473Z,33.92
2024-04-21T13:07:22.564Z,34.49
2024-04-21T13:09:49.220Z,34.49
2024-04-21T13:12:18.455Z,34.97
2024-04-21T13:14:45.019Z,34.83
2024-04-21T13:17:11.632Z,34.79
2024-04-21T13:19:38.424Z,34.14
2024-04-21T13:22:05.052Z,34.62
2024-04-21T13:24:31.600Z,35.43
2024-04-21T13:26:58.186Z,35.74
2024-04-21T13:29:24.748Z,34.87
2024-04-21T13:31:51.286Z,34.02
2024-04-21T13:34:17.929Z,32.96
2024-04-21T13:36:44.515Z,33.50
2024-04-21T13:39:11.096Z,31.89
2024-04-21T13:41:37.691Z,30.81
2024-04-21T13:44:04.470Z,29.03
2024-04-21T13:46:31.340Z,25.55
2024-04-21T13:48:58.088Z,26.52
2024-04-21T13:51:31.383Z,28.75
2024-04-21T13:53:59.528Z,27.25
2024-04-21T13:56:26.270Z,28.14
2024-04-21T13:58:52.874Z,30.05
2024-04-21T14:01:19.516Z,32.35
2024-04-21T14:03:46.186Z,31.15
2024-04-21T14:06:12.756Z,32.06
2024-04-21T14:08:39.688Z,32.96
2024-04-21T14:11:06.736Z,33.78
2024-04-21T14:13:33.744Z,28.79
2024-04-21T14:16:00.755Z,26.76
2024-04-21T14:18:27.739Z,26.32
2024-04-21T14:20:54.655Z,24.84
2024-04-21T14:23:21.586Z,23.48
2024-04-21T14:25:48.548Z,22.27
2024-04-21T14:28:15.498Z,22.21
2024-04-21T14:30:42.478Z,21.42
2024-04-21T14:33:10.435Z,20.82
2024-04-21T14:35:37.445Z,20.67
2024-04-21T14:38:04.436Z,22.32
2024-04-21T14:40:31.393Z,21.04
2024-04-21T14:42:58.422Z,19.07
2024-04-21T14:45:25.404Z,21.08
2024-04-21T14:47:52.438Z,23.83
2024-04-21T14:50:19.399Z,22.18
2024-04-21T14:52:46.321Z,22.33
2024-04-21T14:55:13.293Z,20.69
2024-04-21T14:57:40.277Z,21.52
2024-04-21T15:00:07.186Z,21.16
2024-04-21T15:02:34.144Z,20.40
2024-04-21T15:05:01.190Z,19.34
2024-04-21T15:07:28.191Z,19.46
2024-04-21T15:09:55.196Z,18.73
2024-04-21T15:12:22.181Z,17.95
2024-04-21T15:14:49.126Z,17.45
2024-04-21T15:17:16.108Z,19.15
2024-04-21T15:19:43.068Z,19.19
2024-04-21T15:22:10.033Z,18.95
2024-04-21T15:24:36.973Z,17.87
2024-04-21T15:27:03.931Z,16.82
2024-04-21T15:29:30.888Z,16.63
2024-04-21T15:31:57.881Z,16.46
2024-04-21T15:34:24.838Z,18.35
2024-04-21T15:36:51.771Z,21.39
2024-04-21T15:39:18.717Z,22.19
2024-04-21T15:41:45.656Z,23.02
2024-04-21T15:44:12.604Z,23.30
2024-04-21T15:46:39.624Z,23.87
2024-04-21T15:49:06.583Z,25.78
2024-04-21T15:51:33.552Z,28.79
2024-04-21T15:54:00.504Z,27.53
2024-04-21T15:56:27.440Z,30.07
2024-04-21T15:58:54.361Z,30.93
2024-04-21T16:01:21.485Z,33.84
2024-04-21T16:03:48.563Z,36.34
2024-04-21T16:06:15.529Z,37.79
2024-04-21T16:08:42.472Z,38.57
2024-04-21T16:11:09.437Z,37.34
2024-04-21T16:13:36.430Z,38.68
2024-04-21T16:16:03.498Z,37.60
2024-04-21T16:18:31.102Z,38.12
2024-04-21T16:20:58.102Z,38.08
2024-04-21T16:23:39.929Z,34.53
2024-04-21T16:26:06.879Z,33.67
2024-04-21T16:28:33.919Z,32.49
2024-04-21T16:31:01.014Z,33.59
2024-04-21T16:33:28.058Z,31.94
2024-04-21T16:35:55.027Z,31.29
2024-04-21T16:38:21.980Z,30.35
2024-04-21T16:40:49.100Z,30.84
2024-04-21T16:43:16.084Z,31.39
2024-04-21T16:45:42.670Z,31.52
2024-04-21T16:48:09.320Z,31.09
2024-04-21T16:50:35.874Z,31.10
2024-04-21T16:53:02.400Z,31.63
2024-04-21T16:55:29.007Z,30.48
2024-04-21T16:57:55.626Z,31.58
2024-04-21T17:00:22.188Z,31.70
2024-04-21T17:02:48.787Z,31.94
2024-04-21T17:05:15.407Z,32.57
2024-04-21T17:07:41.944Z,33.03
2024-04-21T17:10:08.528Z,34.28
2024-04-21T17:12:35.108Z,34.96
2024-04-21T17:15:01.737Z,34.84
2024-04-21T17:17:28.522Z,35.43
2024-04-21T17:19:55.132Z,36.78
2024-04-21T17:22:21.728Z,36.38
2024-04-21T17:24:48.655Z,36.30
2024-04-21T17:27:15.269Z,37.01
2024-04-21T17:29:41.816Z,37.08
2024-04-21T17:32:08.383Z,37.21
2024-04-21T17:34:35.041Z,38.37
2024-04-21T17:37:01.696Z,37.93
2024-04-21T17:39:28.328Z,38.11
2024-04-21T17:41:54.878Z,37.91
2024-04-21T17:44:21.984Z,37.12
2024-04-21T17:46:48.968Z,37.91
2024-04-21T17:49:16.039Z,38.85
2024-04-21T17:51:43.007Z,39.58
2024-04-21T17:54:09.959Z,40.14
2024-04-21T17:56:36.970Z,39.82
2024-04-21T17:59:03.912Z,42.51
2024-04-21T18:01:30.837Z,44.24
2024-04-21T18:03:57.816Z,46.52
2024-04-21T18:06:24.769Z,47.35
2024-04-21T18:08:51.739Z,48.11
2024-04-21T18:11:18.748Z,48.36
2024-04-21T18:13:45.729Z,49.07
2024-04-21T18:16:12.692Z,50.89
2024-04-21T18:18:39.841Z,53.83
2024-04-21T18:21:06.886Z,56.68
2024-04-21T18:23:33.865Z,56.95
2024-04-21T18:26:00.797Z,56.65
2024-04-21T18:28:27.941Z,55.12
2024-04-21T18:30:54.932Z,54.59
2024-04-21T18:33:21.944Z,54.83
2024-04-21T18:35:49.064Z,54.78
2024-04-21T18:38:15.967Z,54.16
2024-04-21T18:40:42.938Z,52.74
2024-04-21T18:43:09.872Z,52.72
2024-04-21T18:45:37.053Z,52.52
2024-04-21T18:48:04.037Z,52.72
2024-04-21T18:50:30.989Z,52.10
2024-04-21T18:52:57.958Z,51.62
2024-04-21T18:55:24.956Z,50.70
2024-04-21T18:57:51.948Z,49.89
2024-04-21T19:00:18.902Z,50.37
2024-04-21T19:02:45.956Z,49.32
2024-04-21T19:05:12.910Z,49.52
2024-04-21T19:07:39.898Z,48.65
2024-04-21T19:10:07.141Z,48.35
2024-04-21T19:12:34.152Z,48.07
2024-04-21T19:15:01.128Z,48.01
2024-04-21T19:17:28.202Z,48.52
2024-04-21T19:19:55.181Z,48.36
2024-04-21T19:22:22.167Z,48.53
2024-04-21T19:24:49.148Z,47.64
2024-04-21T19:27:16.132Z,47.54
2024-04-21T19:29:43.116Z,47.88
2024-04-21T19:32:10.096Z,46.52
2024-04-21T19:34:37.070Z,46.43
2024-04-21T19:37:04.161Z,47.69
2024-04-21T19:39:31.243Z,46.94
2024-04-21T19:41:58.186Z,47.79
2024-04-21T19:44:25.226Z,48.27
2024-04-21T19:46:52.148Z,49.28
2024-04-21T19:49:19.100Z,49.65
2024-04-21T19:51:46.075Z,49.61
2024-04-21T19:54:20.231Z,50.21
2024-04-21T19:56:51.333Z,50.39
2024-04-21T19:59:18.257Z,49.57
2024-04-21T20:01:45.275Z,49.86
2024-04-21T20:04:12.280Z,49.18
2024-04-21T20:06:39.251Z,48.16
2024-04-21T20:09:06.224Z,48.53
2024-04-21T20:11:33.198Z,48.68
2024-04-21T20:13:59.810Z,49.03
2024-04-21T20:16:26.477Z,49.67
2024-04-21T20:18:53.078Z,49.04
2024-04-21T20:21:19.702Z,48.64
2024-04-21T20:23:46.267Z,49.87
2024-04-21T20:26:12.870Z,50.27
2024-04-21T20:28:39.443Z,50.58
2024-04-21T20:31:06.038Z,50.88
2024-04-21T20:33:32.688Z,50.99
2024-04-21T20:35:59.247Z,50.60
2024-04-21T20:38:25.860Z,48.97
2024-04-21T20:40:52.398Z,49.24
2024-04-21T20:43:19.011Z,49.17
2024-04-21T20:45:45.600Z,49.53
2024-04-21T20:48:12.277Z,49.28
2024-04-21T20:50:38.904Z,49.54
2024-04-21T20:53:05.481Z,48.98
2024-04-21T20:55:32.210Z,49.63
2024-04-21T20:57:58.839Z,49.47
2024-04-21T21:00:25.410Z,49.95
2024-04-21T21:02:51.928Z,49.77
2024-04-21T21:05:18.581Z,50.29
2024-04-21T21:07:45.160Z,51.76
2024-04-21T21:10:11.760Z,51.96
2024-04-21T21:12:38.760Z,51.66
2024-04-21T21:15:05.759Z,51.86
2024-04-21T21:17:32.842Z,51.64
2024-04-21T21:19:59.875Z,52.72
2024-04-21T21:22:26.920Z,53.21
2024-04-21T21:24:53.897Z,53.89
2024-04-21T21:27:20.858Z,54.80
2024-04-21T21:29:47.869Z,54.45
2024-04-21T21:32:14.816Z,54.82
2024-04-21T21:34:41.821Z,53.94
2024-04-21T21:37:08.757Z,53.08
2024-04-21T21:39:35.703Z,53.92
2024-04-21T21:42:02.645Z,53.69
2024-04-21T21:44:29.653Z,53.81
2024-04-21T21:46:56.596Z,53.87
2024-04-21T21:49:23.580Z,53.68
2024-04-21T21:51:50.641Z,53.67
2024-04-21T21:54:17.600Z,53.41
2024-04-21T21:56:44.525Z,53.34
2024-04-21T21:59:11.430Z,53.15
2024-04-21T22:01:38.510Z,52.71
2024-04-21T22:04:05.637Z,52.62
2024-04-21T22:06:32.625Z,52.50
2024-04-21T22:08:59.571Z,52.71
2024-04-21T22:11:26.509Z,52.84
2024-04-21T22:13:53.439Z,52.82
2024-04-21T22:16:20.419Z,52.69
2024-04-21T22:18:47.500Z,52.32
2024-04-21T22:21:14.531Z,52.04
2024-04-21T22:23:41.434Z,52.40
2024-04-21T22:26:08.360Z,53.01
2024-04-21T22:28:35.413Z,52.50
2024-04-21T22:31:02.582Z,52.00
2024-04-21T22:33:29.635Z,52.33
2024-04-21T22:35:56.647Z,51.32
2024-04-21T22:38:23.616Z,51.46
2024-04-21T22:40:50.145Z,52.38
2024-04-21T22:43:16.739Z,52.64
2024-04-21T22:45:43.281Z,52.75
2024-04-21T22:48:09.906Z,52.18
2024-04-21T22:50:36.495Z,52.75
2024-04-21T22:53:03.073Z,52.29
2024-04-21T22:55:29.676Z,52.20
2024-04-21T22:57:56.250Z,51.85
2024-04-21T23:00:22.772Z,52.22
2024-04-21T23:02:49.309Z,52.12
2024-04-21T23:05:15.876Z,51.74
2024-04-21T23:07:42.494Z,51.07
2024-04-21T23:10:09.105Z,52.25
2024-04-21T23:12:35.683Z,52.92
2024-04-21T23:15:02.247Z,52.81
2024-04-21T23:17:28.993Z,53.58
2024-04-21T23:19:55.597Z,53.65
2024-04-21T23:22:22.178Z,53.06
2024-04-21T23:24:48.725Z,52.50
2024-04-21T23:27:15.301Z,52.88
2024-04-21T23:29:41.866Z,52.49
2024-04-21T23:32:08.432Z,53.36
2024-04-21T23:34:35.022Z,53.09
2024-04-21T23:37:01.625Z,52.64
2024-04-21T23:39:28.589Z,51.84
2024-04-21T23:41:55.555Z,53.14
2024-04-21T23:44:22.552Z,53.13
2024-04-21T23:46:49.507Z,52.65
2024-04-21T23:49:16.476Z,53.60
2024-04-21T23:51:43.472Z,54.72
2024-04-21T23:54:10.436Z,54.47
2024-04-21T23:56:37.364Z,53.91
2024-04-21T23:59:04.323Z,55.15
